sensor_id;sensor_type;location;lat;lon;timestamp;temperature;humidity
22185;DHT22;11258;52.516;13.318;2023-06-01T00:02:03;19.70;99.90
22185;DHT22;11258;52.516;13.318;2023-06-01T00:04:29;19.70;99.90
22185;DHT22;11258;52.516;13.318;2023-06-01T00:06:54;19.70;99.90
22185;DHT22;11258;52.516;13.318;2023-06-01T00:09:20;19.60;99.90
22185;DHT22;11258;52.516;13.318;2023-06-01T00:11:46;19.60;99.90
22185;DHT22;11258;52.516;13.318;2023-06-01T00:14:11;19.50;99.90
22185;DHT22;11258;52.516;13.318;2023-06-01T00:16:37;19.30;99.90
22185;DHT22;11258;52.516;13.318;2023-06-01T00:19:03;19.40;99.90
22185;DHT22;11258;52.516;13.318;2023-06-01T00:21:29;19.40;99.90
22185;DHT22;11258;52.516;13.318;2023-06-01T00:23:57;19.40;99.90
22185;DHT22;11258;52.516;13.318;2023-06-01T00:26:23;19.50;99.90
22185;DHT22;11258;52.516;13.318;2023-06-01T00:28:49;19.50;99.90
22185;DHT22;11258;52.516;13.318;2023-06-01T00:31:14;19.50;99.90
22185;DHT22;11258;52.516;13.318;2023-06-01T00:33:40;19.40;99.90
22185;DHT22;11258;52.516;13.318;2023-06-01T00:36:06;19.50;99.90
22185;DHT22;11258;52.516;13.318;2023-06-01T00:38:32;19.50;99.90
22185;DHT22;11258;52.516;13.318;2023-06-01T00:40:57;19.30;99.90
22185;DHT22;11258;52.516;13.318;2023-06-01T00:43:23;19.10;99.90
22185;DHT22;11258;52.516;13.318;2023-06-01T00:45:49;19.20;99.90
22185;DHT22;11258;52.516;13.318;2023-06-01T00:48:15;19.10;99.90
22185;DHT22;11258;52.516;13.318;2023-06-01T00:50:42;18.90;99.90
22185;DHT22;11258;52.516;13.318;2023-06-01T00:53:12;19.00;99.90
22185;DHT22;11258;52.516;13.318;2023-06-01T00:55:40;18.80;99.90
22185;DHT22;11258;52.516;13.318;2023-06-01T00:58:06;18.90;99.90
22185;DHT22;11258;52.516;13.318;2023-06-01T01:00:32;18.80;99.90
22185;DHT22;11258;52.516;13.318;2023-06-01T01:02:58;18.70;99.90
22185;DHT22;11258;52.516;13.318;2023-06-01T01:05:26;18.50;99.90
22185;DHT22;11258;52.516;13.318;2023-06-01T01:10:55;18.60;99.90
22185;DHT22;11258;52.516;13.318;2023-06-01T01:13:34;18.70;99.90
22185;DHT22;11258;52.516;13.318;2023-06-01T01:16:55;18.60;99.90
22185;DHT22;11258;52.516;13.318;2023-06-01T01:20:03;18.40;99.90
22185;DHT22;11258;52.516;13.318;2023-06-01T01:25:51;18.50;99.90
22185;DHT22;11258;52.516;13.318;2023-06-01T01:28:48;18.20;99.90
22185;DHT22;11258;52.516;13.318;2023-06-01T01:31:17;18.00;99.90
22185;DHT22;11258;52.516;13.318;2023-06-01T01:33:46;18.00;99.90
22185;DHT22;11258;52.516;13.318;2023-06-01T01:36:12;18.00;99.90
22185;DHT22;11258;52.516;13.318;2023-06-01T01:38:38;18.00;99.90
22185;DHT22;11258;52.516;13.318;2023-06-01T01:41:04;17.80;99.90
22185;DHT22;11258;52.516;13.318;2023-06-01T01:43:31;17.90;99.90
22185;DHT22;11258;52.516;13.318;2023-06-01T01:52:35;17.70;99.90
22185;DHT22;11258;52.516;13.318;2023-06-01T01:54:43;17.40;99.90
22185;DHT22;11258;52.516;13.318;2023-06-01T01:57:09;17.60;99.90
22185;DHT22;11258;52.516;13.318;2023-06-01T01:59:37;17.60;99.90
22185;DHT22;11258;52.516;13.318;2023-06-01T02:02:03;17.40;99.90
22185;DHT22;11258;52.516;13.318;2023-06-01T02:04:29;17.50;99.90
22185;DHT22;11258;52.516;13.318;2023-06-01T02:06:55;17.30;99.90
22185;DHT22;11258;52.516;13.318;2023-06-01T02:09:21;17.30;99.90
22185;DHT22;11258;52.516;13.318;2023-06-01T02:11:47;17.30;99.90
22185;DHT22;11258;52.516;13.318;2023-06-01T02:14:12;16.90;99.90
22185;DHT22;11258;52.516;13.318;2023-06-01T02:16:38;16.80;99.90
22185;DHT22;11258;52.516;13.318;2023-06-01T02:19:03;16.90;99.90
22185;DHT22;11258;52.516;13.318;2023-06-01T02:21:30;16.80;99.90
22185;DHT22;11258;52.516;13.318;2023-06-01T02:23:56;16.60;99.90
22185;DHT22;11258;52.516;13.318;2023-06-01T02:26:29;16.40;99.90
22185;DHT22;11258;52.516;13.318;2023-06-01T02:28:56;16.80;99.90
22185;DHT22;11258;52.516;13.318;2023-06-01T02:31:22;16.40;99.90
22185;DHT22;11258;52.516;13.318;2023-06-01T02:33:48;16.30;99.90
22185;DHT22;11258;52.516;13.318;2023-06-01T02:36:13;16.20;99.90
22185;DHT22;11258;52.516;13.318;2023-06-01T02:38:42;16.20;99.90
22185;DHT22;11258;52.516;13.318;2023-06-01T02:41:08;16.40;99.90
22185;DHT22;11258;52.516;13.318;2023-06-01T02:43:34;16.50;99.90
22185;DHT22;11258;52.516;13.318;2023-06-01T02:46:00;16.20;99.90
22185;DHT22;11258;52.516;13.318;2023-06-01T02:48:26;16.20;99.90
22185;DHT22;11258;52.516;13.318;2023-06-01T02:50:53;16.00;99.90
22185;DHT22;11258;52.516;13.318;2023-06-01T02:53:19;16.20;99.90
22185;DHT22;11258;52.516;13.318;2023-06-01T02:55:44;15.90;99.90
22185;DHT22;11258;52.516;13.318;2023-06-01T02:58:10;16.20;99.90
22185;DHT22;11258;52.516;13.318;2023-06-01T03:00:42;16.00;99.90
22185;DHT22;11258;52.516;13.318;2023-06-01T03:03:08;16.20;99.90
22185;DHT22;11258;52.516;13.318;2023-06-01T03:05:33;15.90;99.90
22185;DHT22;11258;52.516;13.318;2023-06-01T03:08:01;16.20;99.90
22185;DHT22;11258;52.516;13.318;2023-06-01T03:10:27;16.30;99.90
22185;DHT22;11258;52.516;13.318;2023-06-01T03:12:52;16.30;99.90
22185;DHT22;11258;52.516;13.318;2023-06-01T03:15:18;15.80;99.90
22185;DHT22;11258;52.516;13.318;2023-06-01T03:17:44;15.60;99.90
22185;DHT22;11258;52.516;13.318;2023-06-01T03:20:10;15.70;99.90
22185;DHT22;11258;52.516;13.318;2023-06-01T03:22:44;15.60;99.90
22185;DHT22;11258;52.516;13.318;2023-06-01T03:25:10;15.80;99.90
22185;DHT22;11258;52.516;13.318;2023-06-01T03:27:38;15.60;99.90
22185;DHT22;11258;52.516;13.318;2023-06-01T03:30:04;15.90;99.90
22185;DHT22;11258;52.516;13.318;2023-06-01T03:32:36;16.40;99.90
22185;DHT22;11258;52.516;13.318;2023-06-01T03:35:03;16.60;99.90
22185;DHT22;11258;52.516;13.318;2023-06-01T03:37:28;16.60;99.90
22185;DHT22;11258;52.516;13.318;2023-06-01T03:39:54;16.70;99.90
22185;DHT22;11258;52.516;13.318;2023-06-01T03:42:20;17.30;99.90
22185;DHT22;11258;52.516;13.318;2023-06-01T03:44:46;17.50;99.90
22185;DHT22;11258;52.516;13.318;2023-06-01T03:47:11;17.60;99.90
22185;DHT22;11258;52.516;13.318;2023-06-01T03:49:39;17.80;99.90
22185;DHT22;11258;52.516;13.318;2023-06-01T03:52:05;18.70;99.90
22185;DHT22;11258;52.516;13.318;2023-06-01T03:54:31;18.70;99.90
22185;DHT22;11258;52.516;13.318;2023-06-01T03:56:57;19.20;99.90
22185;DHT22;11258;52.516;13.318;2023-06-01T03:59:22;19.80;99.90
22185;DHT22;11258;52.516;13.318;2023-06-01T04:01:48;19.90;99.90
22185;DHT22;11258;52.516;13.318;2023-06-01T04:04:14;19.80;99.90
22185;DHT22;11258;52.516;13.318;2023-06-01T04:06:42;20.00;99.90
22185;DHT22;11258;52.516;13.318;2023-06-01T04:09:11;19.20;99.90
22185;DHT22;11258;52.516;13.318;2023-06-01T04:11:39;19.30;99.90
22185;DHT22;11258;52.516;13.318;2023-06-01T04:14:05;19.10;99.90
22185;DHT22;11258;52.516;13.318;2023-06-01T04:16:31;19.70;99.90
22185;DHT22;11258;52.516;13.318;2023-06-01T04:18:56;19.00;99.90
22185;DHT22;11258;52.516;13.318;2023-06-01T04:21:23;18.70;99.90
22185;DHT22;11258;52.516;13.318;2023-06-01T04:23:50;18.20;99.90
22185;DHT22;11258;52.516;13.318;2023-06-01T04:26:16;17.20;99.90
22185;DHT22;11258;52.516;13.318;2023-06-01T04:28:44;17.10;99.90
22185;DHT22;11258;52.516;13.318;2023-06-01T04:31:14;17.00;99.90
22185;DHT22;11258;52.516;13.318;2023-06-01T04:33:44;16.30;99.90
22185;DHT22;11258;52.516;13.318;2023-06-01T04:36:13;16.40;99.90
22185;DHT22;11258;52.516;13.318;2023-06-01T04:38:42;15.90;99.90
22185;DHT22;11258;52.516;13.318;2023-06-01T04:41:10;16.10;99.90
22185;DHT22;11258;52.516;13.318;2023-06-01T04:43:36;16.00;99.90
22185;DHT22;11258;52.516;13.318;2023-06-01T04:46:05;15.60;99.90
22185;DHT22;11258;52.516;13.318;2023-06-01T04:48:31;15.50;99.90
22185;DHT22;11258;52.516;13.318;2023-06-01T04:51:00;15.30;99.90
22185;DHT22;11258;52.516;13.318;2023-06-01T04:53:26;14.90;99.90
22185;DHT22;11258;52.516;13.318;2023-06-01T04:55:52;14.80;99.90
22185;DHT22;11258;52.516;13.318;2023-06-01T04:58:19;14.90;99.90
22185;DHT22;11258;52.516;13.318;2023-06-01T05:00:45;14.90;99.90
22185;DHT22;11258;52.516;13.318;2023-06-01T05:03:11;14.60;99.90
22185;DHT22;11258;52.516;13.318;2023-06-01T05:05:37;14.50;99.90
22185;DHT22;11258;52.516;13.318;2023-06-01T05:08:03;14.10;99.90
22185;DHT22;11258;52.516;13.318;2023-06-01T05:10:30;14.10;99.90
22185;DHT22;11258;52.516;13.318;2023-06-01T05:12:55;14.10;99.90
22185;DHT22;11258;52.516;13.318;2023-06-01T05:15:21;14.20;99.90
22185;DHT22;11258;52.516;13.318;2023-06-01T05:17:47;14.30;99.90
22185;DHT22;11258;52.516;13.318;2023-06-01T05:20:13;14.20;99.90
22185;DHT22;11258;52.516;13.318;2023-06-01T05:22:39;14.50;99.90
22185;DHT22;11258;52.516;13.318;2023-06-01T05:25:05;14.20;99.90
22185;DHT22;11258;52.516;13.318;2023-06-01T05:27:33;14.20;99.90
22185;DHT22;11258;52.516;13.318;2023-06-01T05:29:59;13.90;99.90
22185;DHT22;11258;52.516;13.318;2023-06-01T05:32:26;14.20;99.90
22185;DHT22;11258;52.516;13.318;2023-06-01T05:34:51;14.40;99.90
22185;DHT22;11258;52.516;13.318;2023-06-01T05:37:17;14.40;99.90
22185;DHT22;11258;52.516;13.318;2023-06-01T05:39:43;14.40;99.90
22185;DHT22;11258;52.516;13.318;2023-06-01T05:42:09;14.60;99.90
22185;DHT22;11258;52.516;13.318;2023-06-01T05:44:34;14.70;99.90
22185;DHT22;11258;52.516;13.318;2023-06-01T05:47:00;14.70;99.90
22185;DHT22;11258;52.516;13.318;2023-06-01T05:49:25;14.80;99.90
22185;DHT22;11258;52.516;13.318;2023-06-01T05:51:51;15.10;99.90
22185;DHT22;11258;52.516;13.318;2023-06-01T05:54:17;14.80;99.90
22185;DHT22;11258;52.516;13.318;2023-06-01T05:56:42;15.20;99.90
22185;DHT22;11258;52.516;13.318;2023-06-01T05:59:08;15.20;99.90
22185;DHT22;11258;52.516;13.318;2023-06-01T06:01:34;15.20;99.90
22185;DHT22;11258;52.516;13.318;2023-06-01T06:04:01;15.20;99.90
22185;DHT22;11258;52.516;13.318;2023-06-01T06:06:27;15.10;99.90
22185;DHT22;11258;52.516;13.318;2023-06-01T06:08:52;15.30;99.90
22185;DHT22;11258;52.516;13.318;2023-06-01T06:11:18;15.20;99.90
22185;DHT22;11258;52.516;13.318;2023-06-01T06:13:44;15.30;99.90
22185;DHT22;11258;52.516;13.318;2023-06-01T06:16:10;15.30;99.90
22185;DHT22;11258;52.516;13.318;2023-06-01T06:18:35;15.50;99.90
22185;DHT22;11258;52.516;13.318;2023-06-01T06:21:01;15.40;99.90
22185;DHT22;11258;52.516;13.318;2023-06-01T06:23:27;14.70;99.90
22185;DHT22;11258;52.516;13.318;2023-06-01T06:25:52;15.30;99.90
22185;DHT22;11258;52.516;13.318;2023-06-01T06:28:18;15.80;99.90
22185;DHT22;11258;52.516;13.318;2023-06-01T06:30:44;16.10;99.90
22185;DHT22;11258;52.516;13.318;2023-06-01T06:33:10;15.40;99.90
22185;DHT22;11258;52.516;13.318;2023-06-01T06:35:36;15.70;99.90
22185;DHT22;11258;52.516;13.318;2023-06-01T06:38:02;15.70;99.90
22185;DHT22;11258;52.516;13.318;2023-06-01T06:40:28;15.60;99.90
22185;DHT22;11258;52.516;13.318;2023-06-01T06:42:53;15.30;99.90
22185;DHT22;11258;52.516;13.318;2023-06-01T06:45:19;14.90;99.90
22185;DHT22;11258;52.516;13.318;2023-06-01T06:47:45;15.10;99.90
22185;DHT22;11258;52.516;13.318;2023-06-01T06:50:14;15.50;99.90
22185;DHT22;11258;52.516;13.318;2023-06-01T06:52:40;16.30;99.90
22185;DHT22;11258;52.516;13.318;2023-06-01T06:55:06;16.60;99.90
22185;DHT22;11258;52.516;13.318;2023-06-01T06:57:31;16.60;99.90
22185;DHT22;11258;52.516;13.318;2023-06-01T06:59:59;17.70;99.90
22185;DHT22;11258;52.516;13.318;2023-06-01T07:02:25;17.80;99.90
22185;DHT22;11258;52.516;13.318;2023-06-01T07:04:51;18.50;99.90
22185;DHT22;11258;52.516;13.318;2023-06-01T07:07:17;18.90;99.90
22185;DHT22;11258;52.516;13.318;2023-06-01T07:09:43;18.50;99.90
22185;DHT22;11258;52.516;13.318;2023-06-01T07:12:08;18.30;99.90
22185;DHT22;11258;52.516;13.318;2023-06-01T07:14:34;19.00;99.90
22185;DHT22;11258;52.516;13.318;2023-06-01T07:17:00;19.50;99.90
22185;DHT22;11258;52.516;13.318;2023-06-01T07:19:25;18.80;99.90
22185;DHT22;11258;52.516;13.318;2023-06-01T07:22:01;18.80;99.90
22185;DHT22;11258;52.516;13.318;2023-06-01T07:24:26;18.70;99.90
22185;DHT22;11258;52.516;13.318;2023-06-01T07:26:53;17.80;99.90
22185;DHT22;11258;52.516;13.318;2023-06-01T07:29:20;18.20;99.90
22185;DHT22;11258;52.516;13.318;2023-06-01T07:31:46;18.50;99.90
22185;DHT22;11258;52.516;13.318;2023-06-01T07:34:12;18.10;99.90
22185;DHT22;11258;52.516;13.318;2023-06-01T07:36:38;18.30;99.90
22185;DHT22;11258;52.516;13.318;2023-06-01T07:39:05;18.80;99.90
22185;DHT22;11258;52.516;13.318;2023-06-01T07:41:34;19.20;99.90
22185;DHT22;11258;52.516;13.318;2023-06-01T07:44:00;18.90;99.90
22185;DHT22;11258;52.516;13.318;2023-06-01T07:46:26;18.30;99.90
22185;DHT22;11258;52.516;13.318;2023-06-01T07:48:52;18.80;99.90
22185;DHT22;11258;52.516;13.318;2023-06-01T07:51:17;20.00;99.90
22185;DHT22;11258;52.516;13.318;2023-06-01T07:53:43;20.50;99.90
22185;DHT22;11258;52.516;13.318;2023-06-01T07:56:08;19.50;99.90
22185;DHT22;11258;52.516;13.318;2023-06-01T07:58:34;19.60;99.90
22185;DHT22;11258;52.516;13.318;2023-06-01T08:03:31;20.50;99.90
22185;DHT22;11258;52.516;13.318;2023-06-01T08:05:59;21.70;99.90
22185;DHT22;11258;52.516;13.318;2023-06-01T08:08:30;22.00;99.90
22185;DHT22;11258;52.516;13.318;2023-06-01T08:10:56;22.20;99.90
22185;DHT22;11258;52.516;13.318;2023-06-01T08:13:21;22.10;99.90
22185;DHT22;11258;52.516;13.318;2023-06-01T08:15:48;22.80;99.90
22185;DHT22;11258;52.516;13.318;2023-06-01T08:18:14;22.10;99.90
22185;DHT22;11258;52.516;13.318;2023-06-01T08:20:40;22.30;99.90
22185;DHT22;11258;52.516;13.318;2023-06-01T08:23:07;21.70;99.90
22185;DHT22;11258;52.516;13.318;2023-06-01T08:25:33;20.10;99.90
22185;DHT22;11258;52.516;13.318;2023-06-01T08:27:59;20.10;99.90
22185;DHT22;11258;52.516;13.318;2023-06-01T08:30:27;20.50;99.90
22185;DHT22;11258;52.516;13.318;2023-06-01T08:32:53;21.60;99.90
22185;DHT22;11258;52.516;13.318;2023-06-01T08:35:18;20.80;99.90
22185;DHT22;11258;52.516;13.318;2023-06-01T08:37:47;20.90;99.90
22185;DHT22;11258;52.516;13.318;2023-06-01T08:40:13;20.10;99.90
22185;DHT22;11258;52.516;13.318;2023-06-01T08:45:11;21.10;99.90
22185;DHT22;11258;52.516;13.318;2023-06-01T08:47:38;21.90;99.90
22185;DHT22;11258;52.516;13.318;2023-06-01T08:50:04;22.40;99.90
22185;DHT22;11258;52.516;13.318;2023-06-01T08:52:31;22.30;99.90
22185;DHT22;11258;52.516;13.318;2023-06-01T08:55:00;22.10;99.90
22185;DHT22;11258;52.516;13.318;2023-06-01T08:57:28;22.70;99.90
22185;DHT22;11258;52.516;13.318;2023-06-01T08:59:55;22.30;99.90
22185;DHT22;11258;52.516;13.318;2023-06-01T09:02:24;22.10;99.90
22185;DHT22;11258;52.516;13.318;2023-06-01T09:04:51;22.20;99.90
22185;DHT22;11258;52.516;13.318;2023-06-01T09:07:17;21.80;99.90
22185;DHT22;11258;52.516;13.318;2023-06-01T09:09:44;21.00;99.90
22185;DHT22;11258;52.516;13.318;2023-06-01T09:12:29;20.70;99.90
22185;DHT22;11258;52.516;13.318;2023-06-01T09:17:32;20.70;99.90
22185;DHT22;11258;52.516;13.318;2023-06-01T09:19:58;20.90;99.90
22185;DHT22;11258;52.516;13.318;2023-06-01T09:22:24;19.50;99.90
22185;DHT22;11258;52.516;13.318;2023-06-01T09:24:59;19.90;99.90
22185;DHT22;11258;52.516;13.318;2023-06-01T09:27:26;20.70;99.90
22185;DHT22;11258;52.516;13.318;2023-06-01T09:29:56;21.20;99.90
22185;DHT22;11258;52.516;13.318;2023-06-01T09:32:24;20.50;99.90
22185;DHT22;11258;52.516;13.318;2023-06-01T09:34:50;20.90;99.90
22185;DHT22;11258;52.516;13.318;2023-06-01T09:37:15;20.90;99.90
22185;DHT22;11258;52.516;13.318;2023-06-01T09:39:42;20.50;99.90
22185;DHT22;11258;52.516;13.318;2023-06-01T09:42:09;20.10;99.90
22185;DHT22;11258;52.516;13.318;2023-06-01T09:44:39;19.80;99.90
22185;DHT22;11258;52.516;13.318;2023-06-01T09:47:07;20.00;99.90
22185;DHT22;11258;52.516;13.318;2023-06-01T09:49:42;20.40;99.90
22185;DHT22;11258;52.516;13.318;2023-06-01T09:54:39;21.10;99.90
22185;DHT22;11258;52.516;13.318;2023-06-01T09:57:05;20.60;99.90
22185;DHT22;11258;52.516;13.318;2023-06-01T09:59:43;20.70;99.90
22185;DHT22;11258;52.516;13.318;2023-06-01T10:02:14;20.60;99.90
22185;DHT22;11258;52.516;13.318;2023-06-01T10:04:41;20.90;99.90
22185;DHT22;11258;52.516;13.318;2023-06-01T10:07:08;20.30;99.90
22185;DHT22;11258;52.516;13.318;2023-06-01T10:09:35;19.90;99.90
22185;DHT22;11258;52.516;13.318;2023-06-01T10:12:04;20.70;99.90
22185;DHT22;11258;52.516;13.318;2023-06-01T10:14:30;20.90;99.90
22185;DHT22;11258;52.516;13.318;2023-06-01T10:16:57;21.40;99.90
22185;DHT22;11258;52.516;13.318;2023-06-01T10:19:23;21.90;99.90
22185;DHT22;11258;52.516;13.318;2023-06-01T10:21:49;22.30;99.90
22185;DHT22;11258;52.516;13.318;2023-06-01T10:24:18;22.00;99.90
22185;DHT22;11258;52.516;13.318;2023-06-01T10:29:31;22.10;99.90
22185;DHT22;11258;52.516;13.318;2023-06-01T10:31:57;22.10;99.90
22185;DHT22;11258;52.516;13.318;2023-06-01T10:39:32;22.10;99.90
22185;DHT22;11258;52.516;13.318;2023-06-01T10:57:45;21.30;99.90
22185;DHT22;11258;52.516;13.318;2023-06-01T11:13:29;21.60;99.90
22185;DHT22;11258;52.516;13.318;2023-06-01T11:21:10;21.60;99.90
22185;DHT22;11258;52.516;13.318;2023-06-01T11:23:38;21.70;99.90
22185;DHT22;11258;52.516;13.318;2023-06-01T11:26:06;21.60;99.90
22185;DHT22;11258;52.516;13.318;2023-06-01T11:28:32;21.30;99.90
22185;DHT22;11258;52.516;13.318;2023-06-01T11:31:00;21.40;99.90
22185;DHT22;11258;52.516;13.318;2023-06-01T11:33:28;21.20;99.90
22185;DHT22;11258;52.516;13.318;2023-06-01T11:36:01;21.50;99.90
22185;DHT22;11258;52.516;13.318;2023-06-01T11:38:34;21.90;99.90
22185;DHT22;11258;52.516;13.318;2023-06-01T11:41:01;21.80;99.90
22185;DHT22;11258;52.516;13.318;2023-06-01T11:43:30;21.80;99.90
22185;DHT22;11258;52.516;13.318;2023-06-01T11:46:04;21.80;99.90
22185;DHT22;11258;52.516;13.318;2023-06-01T11:48:30;22.10;99.90
22185;DHT22;11258;52.516;13.318;2023-06-01T11:50:57;21.90;99.90
22185;DHT22;11258;52.516;13.318;2023-06-01T11:53:24;21.80;99.90
22185;DHT22;11258;52.516;13.318;2023-06-01T11:55:51;21.10;99.90
22185;DHT22;11258;52.516;13.318;2023-06-01T11:58:28;21.50;99.90
22185;DHT22;11258;52.516;13.318;2023-06-01T12:00:55;21.80;99.90
22185;DHT22;11258;52.516;13.318;2023-06-01T12:03:21;21.90;99.90
22185;DHT22;11258;52.516;13.318;2023-06-01T12:05:49;21.70;99.90
22185;DHT22;11258;52.516;13.318;2023-06-01T12:08:18;21.90;99.90
22185;DHT22;11258;52.516;13.318;2023-06-01T12:10:48;22.00;99.90
22185;DHT22;11258;52.516;13.318;2023-06-01T12:13:15;21.90;99.90
22185;DHT22;11258;52.516;13.318;2023-06-01T12:15:41;22.20;99.90
22185;DHT22;11258;52.516;13.318;2023-06-01T12:18:07;22.10;99.90
22185;DHT22;11258;52.516;13.318;2023-06-01T12:25:50;21.60;99.90
22185;DHT22;11258;52.516;13.318;2023-06-01T12:28:16;21.80;99.90
22185;DHT22;11258;52.516;13.318;2023-06-01T12:30:45;21.90;99.90
22185;DHT22;11258;52.516;13.318;2023-06-01T12:33:33;22.00;99.90
22185;DHT22;11258;52.516;13.318;2023-06-01T12:36:00;22.10;99.90
22185;DHT22;11258;52.516;13.318;2023-06-01T12:38:25;22.10;99.90
22185;DHT22;11258;52.516;13.318;2023-06-01T12:41:08;22.10;99.90
22185;DHT22;11258;52.516;13.318;2023-06-01T12:44:00;21.80;99.90
22185;DHT22;11258;52.516;13.318;2023-06-01T12:46:28;21.90;99.90
22185;DHT22;11258;52.516;13.318;2023-06-01T12:51:35;21.90;99.90
22185;DHT22;11258;52.516;13.318;2023-06-01T12:54:02;21.90;99.90
22185;DHT22;11258;52.516;13.318;2023-06-01T12:56:28;22.00;99.90
22185;DHT22;11258;52.516;13.318;2023-06-01T12:58:53;22.00;99.90
22185;DHT22;11258;52.516;13.318;2023-06-01T13:01:19;22.00;99.90
22185;DHT22;11258;52.516;13.318;2023-06-01T13:03:45;22.00;99.90
22185;DHT22;11258;52.516;13.318;2023-06-01T13:06:10;22.10;99.90
22185;DHT22;11258;52.516;13.318;2023-06-01T13:08:36;22.20;99.90
22185;DHT22;11258;52.516;13.318;2023-06-01T13:11:02;22.10;99.90
22185;DHT22;11258;52.516;13.318;2023-06-01T13:13:28;22.10;99.90
22185;DHT22;11258;52.516;13.318;2023-06-01T13:15:54;22.00;99.90
22185;DHT22;11258;52.516;13.318;2023-06-01T13:18:20;21.90;99.90
22185;DHT22;11258;52.516;13.318;2023-06-01T13:20:46;22.00;99.90
22185;DHT22;11258;52.516;13.318;2023-06-01T13:23:12;22.30;99.90
22185;DHT22;11258;52.516;13.318;2023-06-01T13:25:39;21.90;99.90
22185;DHT22;11258;52.516;13.318;2023-06-01T13:28:06;22.00;99.90
22185;DHT22;11258;52.516;13.318;2023-06-01T13:30:33;22.20;99.90
22185;DHT22;11258;52.516;13.318;2023-06-01T13:32:59;22.40;99.90
22185;DHT22;11258;52.516;13.318;2023-06-01T13:35:25;22.20;99.90
22185;DHT22;11258;52.516;13.318;2023-06-01T13:37:51;22.30;99.90
22185;DHT22;11258;52.516;13.318;2023-06-01T13:40:17;22.30;99.90
22185;DHT22;11258;52.516;13.318;2023-06-01T13:42:44;22.30;99.90
22185;DHT22;11258;52.516;13.318;2023-06-01T13:45:11;22.30;99.90
22185;DHT22;11258;52.516;13.318;2023-06-01T13:47:37;22.30;99.90
22185;DHT22;11258;52.516;13.318;2023-06-01T13:50:03;22.20;99.90
22185;DHT22;11258;52.516;13.318;2023-06-01T13:52:30;22.10;99.90
22185;DHT22;11258;52.516;13.318;2023-06-01T13:54:55;22.00;99.90
22185;DHT22;11258;52.516;13.318;2023-06-01T13:57:21;22.10;99.90
22185;DHT22;11258;52.516;13.318;2023-06-01T13:59:47;21.90;99.90
22185;DHT22;11258;52.516;13.318;2023-06-01T14:02:13;22.00;99.90
22185;DHT22;11258;52.516;13.318;2023-06-01T14:04:39;22.20;99.90
22185;DHT22;11258;52.516;13.318;2023-06-01T14:07:04;22.40;99.90
22185;DHT22;11258;52.516;13.318;2023-06-01T14:09:30;22.30;99.90
22185;DHT22;11258;52.516;13.318;2023-06-01T14:11:57;22.40;99.90
22185;DHT22;11258;52.516;13.318;2023-06-01T14:14:22;22.30;99.90
22185;DHT22;11258;52.516;13.318;2023-06-01T14:16:48;22.40;99.90
22185;DHT22;11258;52.516;13.318;2023-06-01T14:19:14;22.30;99.90
22185;DHT22;11258;52.516;13.318;2023-06-01T14:21:39;22.40;99.90
22185;DHT22;11258;52.516;13.318;2023-06-01T14:24:05;22.40;99.90
22185;DHT22;11258;52.516;13.318;2023-06-01T14:26:31;22.50;99.90
22185;DHT22;11258;52.516;13.318;2023-06-01T14:28:56;22.50;99.90
22185;DHT22;11258;52.516;13.318;2023-06-01T14:31:22;22.50;99.90
22185;DHT22;11258;52.516;13.318;2023-06-01T14:33:48;22.60;99.90
22185;DHT22;11258;52.516;13.318;2023-06-01T14:36:14;22.60;99.90
22185;DHT22;11258;52.516;13.318;2023-06-01T14:38:40;22.50;99.90
22185;DHT22;11258;52.516;13.318;2023-06-01T14:41:06;22.40;99.90
22185;DHT22;11258;52.516;13.318;2023-06-01T14:43:32;22.40;99.90
22185;DHT22;11258;52.516;13.318;2023-06-01T14:45:58;22.50;99.90
22185;DHT22;11258;52.516;13.318;2023-06-01T14:48:23;22.50;99.90
22185;DHT22;11258;52.516;13.318;2023-06-01T14:50:49;22.40;99.90
22185;DHT22;11258;52.516;13.318;2023-06-01T14:53:15;22.40;99.90
22185;DHT22;11258;52.516;13.318;2023-06-01T14:55:40;22.40;99.90
22185;DHT22;11258;52.516;13.318;2023-06-01T14:58:07;22.20;99.90
22185;DHT22;11258;52.516;13.318;2023-06-01T15:00:33;22.10;99.90
22185;DHT22;11258;52.516;13.318;2023-06-01T15:03:00;22.20;99.90
22185;DHT22;11258;52.516;13.318;2023-06-01T15:05:27;22.10;99.90
22185;DHT22;11258;52.516;13.318;2023-06-01T15:07:52;22.00;99.90
22185;DHT22;11258;52.516;13.318;2023-06-01T15:10:18;22.10;99.90
22185;DHT22;11258;52.516;13.318;2023-06-01T15:12:44;22.20;99.90
22185;DHT22;11258;52.516;13.318;2023-06-01T15:15:09;22.30;99.90
22185;DHT22;11258;52.516;13.318;2023-06-01T15:17:35;22.30;99.90
22185;DHT22;11258;52.516;13.318;2023-06-01T15:20:01;22.30;99.90
22185;DHT22;11258;52.516;13.318;2023-06-01T15:22:27;22.40;99.90
22185;DHT22;11258;52.516;13.318;2023-06-01T15:24:53;22.40;99.90
22185;DHT22;11258;52.516;13.318;2023-06-01T15:27:19;22.40;99.90
22185;DHT22;11258;52.516;13.318;2023-06-01T15:29:45;22.30;99.90
22185;DHT22;11258;52.516;13.318;2023-06-01T15:32:11;22.20;99.90
22185;DHT22;11258;52.516;13.318;2023-06-01T15:34:36;22.10;99.90
22185;DHT22;11258;52.516;13.318;2023-06-01T15:37:07;22.10;99.90
22185;DHT22;11258;52.516;13.318;2023-06-01T15:39:34;22.20;99.90
22185;DHT22;11258;52.516;13.318;2023-06-01T15:42:00;22.20;99.90
22185;DHT22;11258;52.516;13.318;2023-06-01T15:44:26;22.30;99.90
22185;DHT22;11258;52.516;13.318;2023-06-01T15:46:52;22.20;99.90
22185;DHT22;11258;52.516;13.318;2023-06-01T15:49:18;22.30;99.90
22185;DHT22;11258;52.516;13.318;2023-06-01T15:51:43;22.30;99.90
22185;DHT22;11258;52.516;13.318;2023-06-01T15:54:09;22.20;99.90
22185;DHT22;11258;52.516;13.318;2023-06-01T15:56:35;22.30;99.90
22185;DHT22;11258;52.516;13.318;2023-06-01T15:59:00;22.30;99.90
22185;DHT22;11258;52.516;13.318;2023-06-01T16:01:26;22.20;99.90
22185;DHT22;11258;52.516;13.318;2023-06-01T16:03:52;22.20;99.90
22185;DHT22;11258;52.516;13.318;2023-06-01T16:06:17;22.30;99.90
22185;DHT22;11258;52.516;13.318;2023-06-01T16:08:43;22.30;99.90
22185;DHT22;11258;52.516;13.318;2023-06-01T16:11:08;22.30;99.90
22185;DHT22;11258;52.516;13.318;2023-06-01T16:13:34;22.30;99.90
22185;DHT22;11258;52.516;13.318;2023-06-01T16:16:00;22.10;99.90
22185;DHT22;11258;52.516;13.318;2023-06-01T16:18:26;22.00;99.90
22185;DHT22;11258;52.516;13.318;2023-06-01T16:20:51;22.00;99.90
22185;DHT22;11258;52.516;13.318;2023-06-01T16:23:17;21.90;99.90
22185;DHT22;11258;52.516;13.318;2023-06-01T16:25:42;21.90;99.90
22185;DHT22;11258;52.516;13.318;2023-06-01T16:28:08;21.80;99.90